createdAt,value
2018-09-05T00:00:41.124Z,25.4
2018-09-05T00:01:31.247Z,25.4
2018-09-05T00:02:20.383Z,25.4
2018-09-05T00:03:11.140Z,25.4
2018-09-05T00:04:00.785Z,25.4
2018-09-05T00:04:50.297Z,25.4
2018-09-05T00:05:41.152Z,25.4
2018-09-05T00:06:31.608Z,25.4
2018-09-05T00:07:20.827Z,25.4
2018-09-05T00:08:11.414Z,25.4
2018-09-05T00:09:01.477Z,25.3
2018-09-05T00:09:51.516Z,25.3
2018-09-05T00:10:41.407Z,25.4
2018-09-05T00:11:31.090Z,25.4
2018-09-05T00:12:21.131Z,25.3
2018-09-05T00:31:43.458Z,25.3
2018-09-05T00:32:33.855Z,25.3
2018-09-05T00:33:23.073Z,25.3
2018-09-05T00:34:13.403Z,25.4
2018-09-05T00:35:03.756Z,25.3
2018-09-05T00:35:52.955Z,25.3
2018-09-05T00:36:44.267Z,25.3
2018-09-05T00:37:33.928Z,25.3
2018-09-05T00:38:24.288Z,25.3
2018-09-05T00:39:14.008Z,25.3
2018-09-05T00:40:03.900Z,25.4
2018-09-05T00:40:53.617Z,25.4
2018-09-05T00:41:44.273Z,25.3
2018-09-05T00:42:34.327Z,25.3
2018-09-05T00:43:24.684Z,25.4
2018-09-05T00:44:14.462Z,25.3
2018-09-05T00:45:04.497Z,25.3
2018-09-05T00:45:54.005Z,25.3
2018-09-05T00:46:44.312Z,25.3
2018-09-05T00:47:35.248Z,25.3
2018-09-05T00:48:23.026Z,25.3
2018-09-05T00:49:14.239Z,25.3
2018-09-05T00:50:04.865Z,25.3
2018-09-05T00:50:53.789Z,25.3
2018-09-05T00:51:45.583Z,25.3
2018-09-05T00:52:34.789Z,25.3
2018-09-05T00:53:24.295Z,25.4
2018-09-05T00:54:14.631Z,25.3
2018-09-05T00:55:05.547Z,25.3
2018-09-05T00:55:55.619Z,25.4
2018-09-05T00:56:45.676Z,25.3
2018-09-05T00:57:35.159Z,25.3
2018-09-05T00:58:24.678Z,25.3
2018-09-05T00:59:15.907Z,25.3
2018-09-05T01:00:05.947Z,25.3
2018-09-05T01:00:55.772Z,25.3
2018-09-05T01:01:45.164Z,25.3
2018-09-05T01:02:36.341Z,25.3
2018-09-05T01:03:25.537Z,25.3
2018-09-05T01:04:15.869Z,25.3
2018-09-05T01:05:05.928Z,25.3
2018-09-05T01:05:56.050Z,25.3
2018-09-05T01:06:45.794Z,25.3
2018-09-05T01:07:36.361Z,25.3
2018-09-05T01:08:25.929Z,25.3
2018-09-05T01:09:16.575Z,25.3
2018-09-05T01:10:06.570Z,25.3
2018-09-05T01:10:56.390Z,25.3
2018-09-05T01:11:46.731Z,25.3
2018-09-05T01:12:35.626Z,25.3
2018-09-05T01:13:26.851Z,25.3
2018-09-05T01:14:15.501Z,25.3
2018-09-05T01:15:06.416Z,25.3
2018-09-05T01:15:56.749Z,25.3
2018-09-05T01:16:46.888Z,25.3
2018-09-05T01:17:36.056Z,25.3
2018-09-05T01:18:27.725Z,25.3
2018-09-05T01:19:16.766Z,25.3
2018-09-05T01:20:07.104Z,25.3
2018-09-05T01:20:57.141Z,25.3
2018-09-05T01:21:46.666Z,25.3
2018-09-05T01:22:37.535Z,25.3
2018-09-05T01:23:27.080Z,25.3
2018-09-05T01:24:17.735Z,25.3
2018-09-05T01:25:07.468Z,25.3
2018-09-05T01:25:57.828Z,25.3
2018-09-05T01:26:47.346Z,25.3
2018-09-05T01:27:39.180Z,25.3
2018-09-05T01:28:27.715Z,25.3
2018-09-05T01:29:18.023Z,25.3
2018-09-05T01:30:07.290Z,25.3
2018-09-05T01:30:57.896Z,25.3
2018-09-05T01:31:47.727Z,25.3
2018-09-05T01:32:38.546Z,25.3
2018-09-05T01:33:28.150Z,25.3
2018-09-05T01:34:18.150Z,25.3
2018-09-05T01:35:07.966Z,25.3
2018-09-05T01:35:58.624Z,25.3
2018-09-05T01:36:47.535Z,25.3
2018-09-05T01:37:38.747Z,25.3
2018-09-05T01:38:27.913Z,25.3
2018-09-05T01:39:19.042Z,25.3
2018-09-05T01:40:08.925Z,25.3
2018-09-05T01:40:58.987Z,25.3
2018-09-05T01:41:49.058Z,25.3
2018-09-05T01:42:38.830Z,25.3
2018-09-05T01:43:28.892Z,25.3
2018-09-05T01:44:18.992Z,25.3
2018-09-05T01:45:08.211Z,25.3
2018-09-05T01:45:58.794Z,25.3
2018-09-05T01:46:49.426Z,25.3
2018-09-05T01:47:39.492Z,25.3
2018-09-05T01:48:29.279Z,25.3
2018-09-05T01:49:19.326Z,25.3
2018-09-05T01:50:09.402Z,25.3
2018-09-05T01:50:58.947Z,25.3
2018-09-05T01:51:49.857Z,25.3
2018-09-05T01:52:39.333Z,25.3
2018-09-05T01:53:29.694Z,25.3
2018-09-05T01:54:19.953Z,25.3
2018-09-05T01:55:09.282Z,25.3
2018-09-05T01:55:59.339Z,25.3
2018-09-05T01:56:49.657Z,25.3
2018-09-05T01:57:39.418Z,25.3
2018-09-05T01:58:29.774Z,25.3
2018-09-05T01:59:20.111Z,25.3
2018-09-05T02:00:09.588Z,25.3
2018-09-05T02:01:00.515Z,25.3
2018-09-05T02:01:50.654Z,25.3
2018-09-05T02:02:40.363Z,25.3
2018-09-05T02:03:29.863Z,25.3
2018-09-05T02:04:20.516Z,25.3
2018-09-05T02:05:10.597Z,25.3
2018-09-05T02:06:00.068Z,25.3
2018-09-05T02:06:50.128Z,25.3
2018-09-05T02:07:40.198Z,25.3
2018-09-05T02:08:32.264Z,25.3
2018-09-05T02:09:20.904Z,25.3
2018-09-05T02:10:11.265Z,25.3
2018-09-05T02:11:01.069Z,25.3
2018-09-05T02:11:50.795Z,25.3
2018-09-05T02:12:40.863Z,25.3
2018-09-05T02:13:30.666Z,25.3
2018-09-05T02:14:20.703Z,25.3
2018-09-05T02:15:11.571Z,25.3
2018-09-05T02:16:01.400Z,25.3
2018-09-05T02:16:51.501Z,25.3
2018-09-05T02:17:40.968Z,25.2
2018-09-05T02:18:31.052Z,25.3
2018-09-05T02:19:21.719Z,25.3
2018-09-05T02:20:11.700Z,25.2
2018-09-05T02:21:01.839Z,25.3
2018-09-05T02:21:51.927Z,25.3
2018-09-05T02:22:41.621Z,25.3
2018-09-05T02:23:31.699Z,25.3
2018-09-05T02:24:21.764Z,25.3
2018-09-05T02:25:12.894Z,25.3
2018-09-05T02:26:02.181Z,25.3
2018-09-05T02:26:52.559Z,25.3
2018-09-05T02:27:42.547Z,25.3
2018-09-05T02:28:32.653Z,25.3
2018-09-05T02:29:22.659Z,25.3
2018-09-05T02:30:12.729Z,25.3
2018-09-05T02:31:02.871Z,25.3
2018-09-05T02:31:52.080Z,25.3
2018-09-05T02:32:42.669Z,25.3
2018-09-05T02:33:32.853Z,25.3
2018-09-05T02:34:22.520Z,25.2
2018-09-05T02:35:12.911Z,25.2
2018-09-05T02:36:03.231Z,25.3
2018-09-05T02:36:53.248Z,25.3
2018-09-05T02:37:43.083Z,25.2
2018-09-05T02:38:32.861Z,25.3
2018-09-05T02:39:23.221Z,25.2
2018-09-05T02:40:13.635Z,25.2
2018-09-05T02:41:03.102Z,25.2
2018-09-05T02:41:53.401Z,25.2
2018-09-05T02:42:43.483Z,25.2
2018-09-05T02:43:33.621Z,25.2
2018-09-05T02:44:23.636Z,25.2
2018-09-05T02:45:13.893Z,25.2
2018-09-05T02:46:03.939Z,25.2
2018-09-05T02:46:54.041Z,25.2
2018-09-05T02:47:44.110Z,25.2
2018-09-05T02:48:33.356Z,25.2
2018-09-05T02:49:24.303Z,25.2
2018-09-05T02:50:14.589Z,25.2
2018-09-05T02:51:04.058Z,25.2
2018-09-05T02:51:53.630Z,25.2
2018-09-05T02:52:43.977Z,25.2
2018-09-05T02:53:34.300Z,25.2
2018-09-05T02:54:24.357Z,25.2
2018-09-05T02:55:13.605Z,25.1
2018-09-05T02:56:04.668Z,25.1
2018-09-05T02:56:54.539Z,25.2
2018-09-05T02:57:44.934Z,25.1
2018-09-05T02:58:33.910Z,25.1
2018-09-05T02:59:24.462Z,25.1
2018-09-05T03:00:14.555Z,25.1
2018-09-05T03:01:04.547Z,25.1
2018-09-05T03:01:54.642Z,25.1
2018-09-05T03:02:44.747Z,25.1
2018-09-05T03:03:35.069Z,25.1
2018-09-05T03:04:24.826Z,25.1
2018-09-05T03:05:15.496Z,25.1
2018-09-05T03:06:05.515Z,25.1
2018-09-05T03:06:55.421Z,25.1
2018-09-05T03:07:45.636Z,25.1
2018-09-05T03:08:35.154Z,25.1
2018-09-05T03:09:26.287Z,25.1
2018-09-05T03:10:15.028Z,25.1
2018-09-05T03:11:05.643Z,25.1
2018-09-05T03:11:55.514Z,25.1
2018-09-05T03:12:46.023Z,25.1
2018-09-05T03:13:36.126Z,25.1
2018-09-05T03:14:25.636Z,25.1
2018-09-05T03:15:15.980Z,25.1
2018-09-05T03:16:05.741Z,25.1
2018-09-05T03:16:56.047Z,25.1
2018-09-05T03:17:45.301Z,25.1
2018-09-05T03:18:35.958Z,25.1
2018-09-05T03:19:26.576Z,25.1
2018-09-05T03:20:16.353Z,25.1
2018-09-05T03:21:06.733Z,25.1
2018-09-05T03:21:56.513Z,25.1
2018-09-05T03:22:46.343Z,25.1
2018-09-05T03:23:37.047Z,25.1
2018-09-05T03:24:26.138Z,25.1
2018-09-05T03:25:17.470Z,25.1
2018-09-05T03:26:06.831Z,25.1
2018-09-05T03:26:56.593Z,25.1
2018-09-05T03:27:46.977Z,25.1
2018-09-05T03:28:36.715Z,25.1
2018-09-05T03:29:27.083Z,25.1
2018-09-05T03:30:17.735Z,25.1
2018-09-05T03:31:06.960Z,25.1
2018-09-05T03:31:57.632Z,25.1
2018-09-05T03:32:47.707Z,25.1
2018-09-05T03:33:37.415Z,25.1
2018-09-05T03:34:27.148Z,25.1
2018-09-05T03:35:17.847Z,25.1
2018-09-05T03:36:07.565Z,25.1
2018-09-05T03:36:57.661Z,25.1
2018-09-05T03:37:47.687Z,25.1
2018-09-05T03:38:37.739Z,25.1
2018-09-05T03:39:27.265Z,25.1
2018-09-05T03:40:17.312Z,25
2018-09-05T03:41:08.445Z,25.1
2018-09-05T03:41:57.150Z,25
2018-09-05T03:42:47.812Z,25
2018-09-05T03:43:38.427Z,25
2018-09-05T03:44:28.517Z,25
2018-09-05T03:45:17.744Z,25
2018-09-05T03:46:08.823Z,25
2018-09-05T03:46:59.269Z,25
2018-09-05T03:47:49.226Z,25
2018-09-05T03:48:38.949Z,25
2018-09-05T03:49:29.028Z,25
2018-09-05T03:50:19.391Z,25
2018-09-05T03:51:09.061Z,25
2018-09-05T03:51:58.843Z,25
2018-09-05T03:52:48.299Z,25
2018-09-05T03:53:38.941Z,25
2018-09-05T03:54:29.054Z,25
2018-09-05T03:55:19.135Z,25
2018-09-05T03:56:09.426Z,25
2018-09-05T03:56:59.474Z,25
2018-09-05T03:57:49.291Z,25
2018-09-05T03:58:39.594Z,25
2018-09-05T03:59:29.666Z,25
2018-09-05T04:00:19.966Z,25
2018-09-05T04:01:10.036Z,25
2018-09-05T04:01:59.595Z,25
2018-09-05T04:02:49.876Z,25
2018-09-05T04:03:39.955Z,25
2018-09-05T04:04:29.269Z,24.9
2018-09-05T04:05:20.419Z,25
2018-09-05T04:06:09.933Z,25
2018-09-05T04:07:00.296Z,25
2018-09-05T04:07:50.516Z,24.9
2018-09-05T04:08:40.364Z,25
2018-09-05T04:09:30.154Z,24.9
2018-09-05T04:10:20.218Z,24.9
2018-09-05T04:11:10.559Z,24.9
2018-09-05T04:12:00.621Z,24.9
2018-09-05T04:12:50.391Z,24.9
2018-09-05T04:13:40.461Z,24.9
2018-09-05T04:14:30.556Z,24.9
2018-09-05T04:15:19.456Z,25
2018-09-05T04:16:09.801Z,24.9
2018-09-05T04:17:01.804Z,24.9
2018-09-05T04:17:50.811Z,24.9
2018-09-05T04:18:40.926Z,24.9
2018-09-05T04:19:30.478Z,24.9
2018-09-05T04:20:21.096Z,24.9
2018-09-05T04:21:11.134Z,24.9
2018-09-05T04:22:02.532Z,24.9
2018-09-05T04:22:51.862Z,24.9
2018-09-05T04:23:41.345Z,24.9
2018-09-05T04:24:31.345Z,24.9
2018-09-05T04:25:21.153Z,24.9
2018-09-05T04:26:11.712Z,24.9
2018-09-05T04:27:01.749Z,24.9
2018-09-05T04:27:51.905Z,24.9
2018-09-05T04:28:41.693Z,24.9
2018-09-05T04:29:32.360Z,24.9
2018-09-05T04:30:22.391Z,24.9
2018-09-05T04:31:11.909Z,24.9
2018-09-05T04:32:02.148Z,24.9
2018-09-05T04:32:51.655Z,24.9
2018-09-05T04:33:42.058Z,24.9
2018-09-05T04:34:32.088Z,24.9
2018-09-05T04:35:22.150Z,24.9
2018-09-05T04:36:12.179Z,24.9
2018-09-05T04:37:01.977Z,24.9
2018-09-05T04:37:52.617Z,24.9
2018-09-05T04:38:42.608Z,24.9
2018-09-05T04:39:32.220Z,24.9
2018-09-05T04:40:21.944Z,24.9
2018-09-05T04:41:12.568Z,24.9
2018-09-05T04:42:02.210Z,24.9
2018-09-05T04:42:52.187Z,24.9
2018-09-05T05:00:32.551Z,24.9
2018-09-05T05:01:22.911Z,24.9
2018-09-05T05:02:12.439Z,24.9
2018-09-05T05:03:03.287Z,24.9
2018-09-05T05:03:53.117Z,24.9
2018-09-05T05:04:43.865Z,24.9
2018-09-05T05:05:35.020Z,24.9
2018-09-05T05:06:23.271Z,24.9
2018-09-05T05:07:13.589Z,24.9
2018-09-05T05:08:03.688Z,24.9
2018-09-05T05:08:53.735Z,24.9
2018-09-05T05:09:43.503Z,24.9
2018-09-05T05:10:33.578Z,24.9
2018-09-05T05:11:23.276Z,24.9
2018-09-05T05:12:13.353Z,24.9
2018-09-05T05:13:04.033Z,24.9
2018-09-05T05:13:54.854Z,24.9
2018-09-05T05:14:43.657Z,24.9
2018-09-05T05:15:33.912Z,24.9
2018-09-05T05:16:24.284Z,24.9
2018-09-05T05:17:14.088Z,24.9
2018-09-05T05:18:03.638Z,24.9
2018-09-05T05:18:54.197Z,24.9
2018-09-05T05:19:44.785Z,24.9
2018-09-05T05:20:34.956Z,24.9
2018-09-05T05:21:24.287Z,24.9
2018-09-05T05:22:14.466Z,24.9
2018-09-05T05:23:04.028Z,24.9
2018-09-05T05:23:54.758Z,25
2018-09-05T05:24:45.229Z,25
2018-09-05T05:25:34.693Z,24.9
2018-09-05T05:26:25.320Z,24.9
2018-09-05T05:27:14.578Z,25
2018-09-05T05:28:05.203Z,25
2018-09-05T05:28:54.951Z,25
2018-09-05T05:29:45.146Z,25
2018-09-05T05:30:35.153Z,25
2018-09-05T05:31:24.749Z,25
2018-09-05T05:32:14.503Z,25
2018-09-05T05:33:05.565Z,25
2018-09-05T05:33:55.463Z,25
2018-09-05T05:34:48.071Z,25
2018-09-05T05:35:36.606Z,25
2018-09-05T05:36:25.851Z,25
2018-09-05T05:37:15.602Z,25
2018-09-05T05:38:07.323Z,25
2018-09-05T05:38:57.823Z,25
2018-09-05T05:39:47.876Z,24.9
2018-09-05T05:40:35.645Z,24.9
2018-09-05T05:41:26.447Z,24.9
2018-09-05T05:42:15.973Z,24.9
2018-09-05T05:43:05.748Z,24.9
2018-09-05T05:43:55.853Z,24.9
2018-09-05T05:44:46.199Z,24.9
2018-09-05T05:45:36.039Z,24.9
2018-09-05T05:46:25.736Z,24.9
2018-09-05T05:47:16.707Z,24.9
2018-09-05T05:48:06.143Z,24.9
2018-09-05T05:48:55.905Z,24.9
2018-09-05T05:49:46.811Z,24.9
2018-09-05T05:50:36.961Z,24.9
2018-09-05T05:51:26.713Z,24.9
2018-09-05T05:52:17.010Z,24.9
2018-09-05T05:53:07.088Z,24.9
2018-09-05T05:53:57.165Z,24.9
2018-09-05T05:54:47.225Z,24.9
2018-09-05T05:55:36.436Z,24.9
2018-09-05T05:56:26.495Z,24.9
2018-09-05T05:57:16.661Z,24.9
2018-09-05T05:58:06.923Z,24.9
2018-09-05T05:58:56.708Z,24.9
2018-09-05T05:59:47.618Z,24.9
2018-09-05T06:00:37.715Z,24.9
2018-09-05T06:01:28.515Z,25
2018-09-05T06:02:17.566Z,25
2018-09-05T06:03:07.563Z,25
2018-09-05T06:03:56.851Z,25
2018-09-05T06:04:47.955Z,25
2018-09-05T06:05:37.815Z,25
2018-09-05T06:06:30.982Z,25
2018-09-05T06:07:17.950Z,25
2018-09-05T06:08:07.967Z,25
2018-09-05T06:08:58.315Z,25.1
2018-09-05T06:09:48.144Z,25.1
2018-09-05T06:10:37.887Z,25.1
2018-09-05T06:11:28.778Z,25.1
2018-09-05T06:12:19.087Z,25.1
2018-09-05T06:13:08.620Z,25.1
2018-09-05T06:13:58.172Z,25.1
2018-09-05T06:14:48.194Z,25.1
2018-09-05T06:15:39.799Z,25.1
2018-09-05T06:16:28.057Z,25.1
2018-09-05T06:17:18.892Z,25.1
2018-09-05T06:18:09.669Z,25.1
2018-09-05T06:18:59.112Z,25.1
2018-09-05T06:19:48.574Z,25.1
2018-09-05T06:20:38.951Z,25.1
2018-09-05T06:21:28.729Z,25.1
2018-09-05T06:22:19.351Z,25.1
2018-09-05T06:23:08.634Z,25.1
2018-09-05T06:23:59.766Z,25.1
2018-09-05T06:24:49.016Z,25.1
2018-09-05T06:26:29.146Z,25.2
2018-09-05T06:27:19.899Z,25.2
2018-09-05T06:28:10.080Z,25.2
2018-09-05T06:28:59.593Z,25.2
2018-09-05T06:29:49.649Z,25.2
2018-09-05T06:30:42.719Z,25.2
2018-09-05T06:31:29.756Z,25.2
2018-09-05T06:32:19.813Z,25.2
2018-09-05T06:33:10.443Z,25.2
2018-09-05T06:34:00.309Z,25.2
2018-09-05T06:34:49.766Z,25.2
2018-09-05T06:35:40.528Z,25.2
2018-09-05T06:36:30.440Z,25.3
2018-09-05T06:37:20.531Z,25.2
2018-09-05T06:38:09.687Z,25.2
2018-09-05T06:39:00.867Z,25.2
2018-09-05T06:39:50.758Z,25.3
2018-09-05T06:40:40.490Z,25.3
2018-09-05T06:41:30.840Z,25.3
2018-09-05T06:42:20.440Z,25.3
2018-09-05T06:43:10.462Z,25.3
2018-09-05T06:44:00.758Z,25.3
2018-09-05T06:44:50.944Z,25.2
2018-09-05T06:45:40.957Z,25.3
2018-09-05T06:46:30.696Z,25.3
2018-09-05T06:47:20.485Z,25.3
2018-09-05T06:48:11.145Z,25.3
2018-09-05T06:49:01.150Z,25.3
2018-09-05T06:49:51.461Z,25.3
2018-09-05T06:50:41.284Z,25.3
2018-09-05T06:51:33.402Z,25.3
2018-09-05T06:52:21.744Z,25.2
2018-09-05T06:53:11.457Z,25.3
2018-09-05T06:54:01.287Z,25.3
2018-09-05T06:54:51.649Z,25.3
2018-09-05T06:55:41.644Z,25.3
2018-09-05T06:56:32.069Z,25.3
2018-09-05T06:57:21.774Z,25.3
2018-09-05T06:58:12.454Z,25.3
2018-09-05T06:59:01.404Z,25.3
2018-09-05T06:59:51.676Z,25.3
2018-09-05T07:00:42.321Z,25.3
2018-09-05T07:01:31.030Z,25.3
2018-09-05T07:02:22.699Z,25.3
2018-09-05T07:03:11.964Z,25.3
2018-09-05T07:04:04.162Z,25.3
2018-09-05T07:04:52.633Z,25.3
2018-09-05T07:05:42.701Z,25.3
2018-09-05T07:06:32.788Z,25.3
2018-09-05T07:07:22.858Z,25.3
2018-09-05T07:08:12.639Z,25.3
2018-09-05T07:09:02.938Z,25.3
2018-09-05T07:09:53.492Z,25.3
2018-09-05T07:10:41.677Z,25.3
2018-09-05T07:11:32.313Z,25.3
2018-09-05T07:12:22.940Z,25.3
2018-09-05T07:13:13.010Z,25.3
2018-09-05T07:14:02.981Z,25.3
2018-09-05T07:14:53.140Z,25.3
2018-09-05T07:15:42.729Z,25.3
2018-09-05T07:16:32.998Z,25.3
2018-09-05T07:17:23.983Z,25.3
2018-09-05T07:18:13.418Z,25.3
2018-09-05T07:19:03.417Z,25.3
2018-09-05T07:19:53.533Z,25.3
2018-09-05T07:20:43.576Z,25.3
2018-09-05T07:21:36.347Z,25.3
2018-09-05T07:22:23.475Z,25.3
2018-09-05T07:23:14.115Z,25.3
2018-09-05T07:24:03.545Z,25.3
2018-09-05T07:24:54.919Z,25.3
2018-09-05T07:25:43.671Z,25.3
2018-09-05T07:26:34.040Z,25.3
2018-09-05T07:27:24.035Z,25.3
2018-09-05T07:28:13.542Z,25.3
2018-09-05T07:29:03.719Z,25.3
2018-09-05T07:29:52.819Z,25.3
2018-09-05T07:30:45.226Z,25.3
2018-09-05T07:31:34.178Z,25.3
2018-09-05T07:32:24.489Z,25.3
2018-09-05T07:33:14.531Z,25.3
2018-09-05T07:34:04.328Z,25.3
2018-09-05T07:34:54.731Z,25.3
2018-09-05T07:35:46.479Z,25.3
2018-09-05T07:36:34.679Z,25.3
2018-09-05T07:37:24.683Z,25.3
2018-09-05T07:38:15.602Z,25.3
2018-09-05T07:39:05.018Z,25.3
2018-09-05T07:39:55.591Z,25.3
2018-09-05T07:40:44.846Z,25.3
2018-09-05T07:41:35.485Z,25.3
2018-09-05T07:42:24.988Z,25.3
2018-09-05T09:15:03.168Z,25.3
2018-09-05T09:15:52.698Z,25.3
2018-09-05T09:16:43.595Z,25.3
2018-09-05T09:17:33.390Z,25.3
2018-09-05T09:18:23.764Z,25.3
2018-09-05T09:19:13.513Z,25.3
2018-09-05T09:20:03.615Z,25.3
2018-09-05T09:20:53.340Z,25.3
2018-09-05T09:21:44.227Z,25.3
2018-09-05T09:22:33.759Z,25.3
2018-09-05T09:23:24.413Z,25.3
2018-09-05T09:24:13.901Z,25.3
2018-09-05T09:25:04.282Z,25.3
2018-09-05T09:25:53.403Z,25.3
2018-09-05T09:26:44.092Z,25.3
2018-09-05T09:27:33.865Z,25.3
2018-09-05T09:28:24.656Z,25.3
2018-09-05T09:29:13.707Z,25.3
2018-09-05T09:30:04.885Z,25.3
2018-09-05T09:30:54.932Z,25.3
2018-09-05T09:31:44.989Z,25.3
2018-09-05T09:32:34.379Z,25.3
2018-09-05T09:33:24.912Z,25.3
2018-09-05T09:34:14.665Z,25.3
2018-09-05T09:35:05.009Z,25.3
2018-09-05T09:35:55.147Z,25.3
2018-09-05T09:36:45.159Z,25.3
2018-09-05T09:37:34.114Z,25.3
2018-09-05T09:38:25.012Z,25.3
2018-09-05T09:39:15.627Z,25.3
2018-09-05T09:40:05.722Z,25.3
2018-09-05T09:40:55.476Z,25.4
2018-09-05T09:41:44.436Z,25.3
2018-09-05T09:42:34.446Z,25.4
2018-09-05T09:43:25.649Z,25.4
2018-09-05T09:44:15.748Z,25.3
2018-09-05T09:45:05.541Z,25.3
2018-09-05T09:45:55.913Z,25.3
2018-09-05T09:46:46.707Z,25.4
2018-09-05T09:47:35.472Z,25.3
2018-09-05T09:48:26.085Z,25.3
2018-09-05T09:49:15.868Z,25.3
2018-09-05T09:50:06.728Z,25.4
2018-09-05T09:50:55.420Z,25.3
2018-09-05T09:51:45.478Z,25.4
2018-09-05T09:52:35.870Z,25.4
2018-09-05T09:53:25.727Z,25.4
2018-09-05T09:54:15.638Z,25.4
2018-09-05T09:55:05.749Z,25.4
2018-09-05T09:55:56.293Z,25.4
2018-09-05T09:56:46.764Z,25.4
2018-09-05T09:57:36.215Z,25.4
2018-09-05T09:58:26.317Z,25.4
2018-09-05T09:59:16.454Z,25.3
2018-09-05T10:00:06.987Z,25.4
2018-09-05T10:00:56.222Z,25.4
2018-09-05T10:01:46.522Z,25.4
2018-09-05T10:02:35.915Z,25.4
2018-09-05T10:03:28.497Z,25.4
2018-09-05T10:04:17.338Z,25.4
2018-09-05T10:05:07.120Z,25.4
2018-09-05T10:05:57.163Z,25.4
2018-09-05T10:06:47.857Z,25.4
2018-09-05T10:07:36.841Z,25.4
2018-09-05T10:08:27.909Z,25.4
2018-09-05T10:09:17.404Z,25.4
2018-09-05T10:10:11.792Z,25.4
2018-09-05T10:10:57.581Z,25.4
2018-09-05T10:11:48.132Z,25.4
2018-09-05T10:12:38.215Z,25.4
2018-09-05T10:13:28.034Z,25.4
2018-09-05T10:14:17.857Z,25.4
2018-09-05T10:15:08.355Z,25.4
2018-09-05T10:15:58.481Z,25.4
2018-09-05T10:16:48.514Z,25.4
2018-09-05T10:17:38.396Z,25.4
2018-09-05T10:18:28.126Z,25.4
2018-09-05T10:19:17.917Z,25.4
2018-09-05T10:20:08.338Z,25.4
2018-09-05T10:20:59.752Z,25.4
2018-09-05T10:21:47.821Z,25.4
2018-09-05T10:22:39.609Z,25.4
2018-09-05T10:23:28.283Z,25.4
2018-09-05T10:24:18.587Z,25.4
2018-09-05T10:25:08.634Z,25.4
2018-09-05T10:25:58.823Z,25.4
2018-09-05T10:26:48.222Z,25.4
2018-09-05T10:27:38.853Z,25.4
2018-09-05T10:28:28.631Z,25.4
2018-09-05T10:29:19.261Z,25.4
2018-09-05T10:30:09.016Z,25.4
2018-09-05T10:30:59.411Z,25.4
2018-09-05T10:31:49.464Z,25.4
2018-09-05T10:32:39.211Z,25.4
2018-09-05T10:33:29.333Z,25.4
2018-09-05T10:34:19.335Z,25.4
2018-09-05T10:35:09.145Z,25.4
2018-09-05T10:35:59.219Z,25.4
2018-09-05T10:36:48.972Z,25.4
2018-09-05T10:37:39.332Z,25.5
2018-09-05T10:38:29.763Z,25.5
2018-09-05T10:39:19.826Z,25.4
2018-09-05T10:40:10.067Z,25.5
2018-09-05T10:40:59.862Z,25.5
2018-09-05T10:41:49.922Z,25.5
2018-09-05T10:42:40.295Z,25.5
2018-09-05T10:43:30.863Z,25.5
2018-09-05T10:44:21.870Z,25.5
2018-09-05T10:45:09.628Z,25.5
2018-09-05T10:46:00.281Z,25.5
2018-09-05T10:46:49.770Z,25.5
2018-09-05T10:47:40.109Z,25.5
2018-09-05T10:48:30.442Z,25.4
2018-09-05T10:49:20.248Z,25.4
2018-09-05T10:50:10.292Z,25.4
2018-09-05T10:51:00.655Z,25.4
2018-09-05T10:51:51.836Z,25.4
2018-09-05T10:52:41.000Z,25.4
2018-09-05T10:53:31.674Z,25.4
2018-09-05T10:54:20.736Z,25.3
2018-09-05T10:55:11.294Z,25.3
2018-09-05T10:56:01.626Z,25.3
2018-09-05T10:56:50.556Z,25.3
2018-09-05T10:57:41.104Z,25.3
2018-09-05T10:58:31.291Z,25.3
2018-09-05T10:59:21.006Z,25.3
2018-09-05T11:00:11.670Z,25.3
2018-09-05T11:01:01.409Z,25.3
2018-09-05T11:01:52.085Z,25.3
2018-09-05T11:02:42.099Z,25.3
2018-09-05T11:03:32.136Z,25.3
2018-09-05T11:04:22.294Z,25.3
2018-09-05T11:05:11.759Z,25.3
2018-09-05T11:06:02.104Z,25.3
2018-09-05T11:06:51.958Z,25.3
2018-09-05T11:07:41.953Z,25.3
2018-09-05T11:08:32.561Z,25.3
2018-09-05T11:09:22.149Z,25.3
2018-09-05T11:10:11.896Z,25.3
2018-09-05T11:11:02.871Z,25.3
2018-09-05T11:11:52.577Z,25.3
2018-09-05T11:12:42.318Z,25.3
2018-09-05T11:13:32.147Z,25.3
2018-09-05T11:14:22.773Z,25.3
2018-09-05T11:15:12.015Z,25.3
2018-09-05T11:16:02.035Z,25.3
2018-09-05T11:16:52.373Z,25.3
2018-09-05T11:17:43.606Z,25.3
2018-09-05T11:18:32.882Z,25.3
2018-09-05T11:19:22.834Z,25.2
2018-09-05T11:20:12.644Z,25.2
2018-09-05T11:21:03.283Z,25.3
2018-09-05T11:21:53.151Z,25.3
2018-09-05T11:22:43.139Z,25.3
2018-09-05T11:23:33.209Z,25.3
2018-09-05T11:24:22.925Z,25.2
2018-09-05T11:25:13.907Z,25.3
2018-09-05T11:26:03.393Z,25.2
2018-09-05T11:26:54.033Z,25.3
2018-09-05T11:27:44.383Z,25.3
2018-09-05T11:28:33.025Z,25.3
2018-09-05T11:29:23.661Z,25.3
2018-09-05T11:30:13.457Z,25.3
2018-09-05T11:31:04.045Z,25.3
2018-09-05T11:31:53.871Z,25.3
2018-09-05T11:32:43.602Z,25.3
2018-09-05T11:33:34.219Z,25.3
2018-09-05T11:34:24.572Z,25.3
2018-09-05T11:35:14.142Z,25.3
2018-09-05T11:36:04.444Z,25.3
2018-09-05T11:36:54.956Z,25.3
2018-09-05T11:37:44.294Z,25.3
2018-09-05T11:38:34.903Z,25.3
2018-09-05T11:39:24.408Z,25.3
2018-09-05T11:40:13.903Z,25.3
2018-09-05T11:41:04.568Z,25.3
2018-09-05T11:41:54.041Z,25.3
2018-09-05T11:42:44.633Z,25.3
2018-09-05T11:43:35.011Z,25.3
2018-09-05T11:44:24.778Z,25.3
2018-09-05T11:45:15.125Z,25.3
2018-09-05T11:46:05.510Z,25.3
2018-09-05T11:46:54.739Z,25.3
2018-09-05T11:47:46.033Z,25.4
2018-09-05T11:48:35.473Z,25.4
2018-09-05T11:49:24.970Z,25.4
2018-09-05T11:50:15.515Z,25.4
2018-09-05T11:51:05.368Z,25.4
2018-09-05T11:51:55.799Z,25.4
2018-09-05T11:52:45.490Z,25.4
2018-09-05T11:53:35.937Z,25.4
2018-09-05T11:54:25.814Z,25.4
2018-09-05T11:55:16.803Z,25.4
2018-09-05T11:56:06.384Z,25.4
2018-09-05T11:56:55.529Z,25.4
2018-09-05T11:57:45.794Z,25.4
2018-09-05T11:58:36.245Z,25.4
2018-09-05T11:59:26.312Z,25.4
2018-09-05T12:00:16.075Z,25.4
2018-09-05T12:01:06.492Z,25.4
2018-09-05T12:01:56.518Z,25.4
2018-09-05T12:02:46.639Z,25.4
2018-09-05T12:03:36.908Z,25.5
2018-09-05T12:04:26.931Z,25.5
2018-09-05T12:05:17.114Z,25.5
2018-09-05T12:06:06.663Z,25.5
2018-09-05T12:06:56.606Z,25.5
2018-09-05T12:07:46.632Z,25.5
2018-09-05T12:08:36.755Z,25.5
2018-09-05T12:09:26.584Z,25.5
2018-09-05T12:10:17.193Z,25.5
2018-09-05T12:11:06.956Z,25.5
2018-09-05T12:11:57.091Z,25.5
2018-09-05T12:12:47.023Z,25.5
2018-09-05T12:13:37.085Z,25.5
2018-09-05T12:14:27.181Z,25.5
2018-09-05T12:15:17.773Z,25.5
2018-09-05T12:16:07.577Z,25.5
2018-09-05T12:16:57.664Z,25.6
2018-09-05T12:17:47.973Z,25.6
2018-09-05T12:18:38.514Z,25.5
2018-09-05T12:19:27.867Z,25.6
2018-09-05T12:20:18.213Z,25.6
2018-09-05T12:21:07.828Z,25.6
2018-09-05T12:21:57.808Z,25.6
2018-09-05T12:22:48.371Z,25.6
2018-09-05T12:23:37.828Z,25.6
2018-09-05T12:24:27.708Z,25.6
2018-09-05T12:25:17.723Z,25.6
2018-09-05T12:26:08.375Z,25.6
2018-09-05T12:26:57.894Z,25.6
2018-09-05T12:27:47.943Z,25.6
2018-09-05T12:28:38.537Z,25.6
2018-09-05T12:29:29.202Z,25.6
2018-09-05T12:30:17.595Z,25.6
2018-09-05T12:31:08.509Z,25.6
2018-09-05T12:31:58.489Z,25.6
2018-09-05T12:32:49.187Z,25.6
2018-09-05T12:33:38.332Z,25.6
2018-09-05T12:34:29.004Z,25.6
2018-09-05T12:35:18.114Z,25.6
2018-09-05T12:36:08.554Z,25.6
2018-09-05T12:36:58.716Z,25.6
2018-09-05T12:37:49.532Z,25.6
2018-09-05T12:38:39.039Z,25.6
2018-09-05T12:39:29.407Z,25.6
2018-09-05T12:40:18.906Z,25.6
2018-09-05T12:41:09.751Z,25.6
2018-09-05T12:41:59.307Z,25.6
2018-09-05T12:42:49.359Z,25.6
2018-09-05T12:43:38.874Z,25.7
2018-09-05T12:44:29.527Z,25.7
2018-09-05T12:45:19.892Z,25.6
2018-09-05T12:46:09.884Z,25.7
2018-09-05T12:46:59.698Z,25.7
2018-09-05T12:47:50.366Z,25.7
2018-09-05T12:48:39.271Z,25.7
2018-09-05T12:49:29.886Z,25.7
2018-09-05T12:50:20.324Z,25.7
2018-09-05T12:51:09.268Z,25.7
2018-09-05T12:52:00.369Z,25.7
2018-09-05T12:52:50.133Z,25.7
2018-09-05T12:53:39.943Z,25.7
2018-09-05T12:54:30.566Z,25.7
2018-09-05T12:55:20.891Z,25.8
2018-09-05T12:56:10.708Z,25.8
2018-09-05T12:57:01.061Z,25.8
2018-09-05T12:57:50.793Z,25.8
2018-09-05T12:58:40.895Z,25.8
2018-09-05T12:59:31.780Z,25.8
2018-09-05T13:00:20.567Z,25.8
2018-09-05T13:01:11.398Z,25.8
2018-09-05T13:02:00.548Z,25.8
2018-09-05T13:02:50.928Z,25.8
2018-09-05T13:03:41.512Z,25.8
2018-09-05T13:04:31.406Z,25.8
2018-09-05T13:05:21.582Z,25.8
2018-09-05T13:06:11.803Z,25.8
2018-09-05T13:07:01.908Z,25.8
2018-09-05T13:07:51.203Z,25.8
2018-09-05T13:08:41.713Z,25.8
2018-09-05T13:09:32.054Z,25.8
2018-09-05T13:10:22.393Z,25.8
2018-09-05T13:11:11.596Z,25.8
2018-09-05T13:12:02.295Z,25.8
2018-09-05T13:12:51.927Z,25.8
2018-09-05T13:13:42.411Z,25.8
2018-09-05T13:14:31.010Z,25.8
2018-09-05T13:15:21.594Z,25.8
2018-09-05T13:16:11.974Z,25.8
2018-09-05T13:17:02.014Z,25.8
2018-09-05T13:17:51.551Z,25.8